createdAt,value
2023-05-09T00:02:23.735Z,13.06
2023-05-09T00:04:50.576Z,13.05
2023-05-09T00:07:17.928Z,13.26
2023-05-09T00:09:44.494Z,13.12
2023-05-09T00:12:12.380Z,12.94
2023-05-09T00:14:40.687Z,12.89
2023-05-09T00:17:07.863Z,12.82
2023-05-09T00:19:45.570Z,12.80
2023-05-09T00:22:13.273Z,12.17
2023-05-09T00:24:42.462Z,12.07
2023-05-09T00:27:09.988Z,11.86
2023-05-09T00:29:36.974Z,11.93
2023-05-09T00:32:05.757Z,12.12
2023-05-09T00:34:32.551Z,12.03
2023-05-09T00:36:59.398Z,11.99
2023-05-09T00:39:26.201Z,12.20
2023-05-09T00:41:52.951Z,12.10
2023-05-09T00:44:19.494Z,12.27
2023-05-09T00:46:48.910Z,12.18
2023-05-09T00:49:15.656Z,12.28
2023-05-09T00:51:42.297Z,12.00
2023-05-09T00:54:09.402Z,12.17
2023-05-09T00:56:36.064Z,12.12
2023-05-09T00:59:03.381Z,12.11
2023-05-09T01:01:30.026Z,12.03
2023-05-09T01:03:56.862Z,12.14
2023-05-09T01:06:41.198Z,11.97
2023-05-09T01:09:34.050Z,11.89
2023-05-09T01:12:09.069Z,11.95
2023-05-09T01:14:41.713Z,11.97
2023-05-09T01:17:09.019Z,12.07
2023-05-09T01:20:01.204Z,12.02
2023-05-09T01:22:34.975Z,11.81
2023-05-09T01:25:23.206Z,12.09
2023-05-09T01:28:08.659Z,11.97
2023-05-09T01:30:36.031Z,12.06
2023-05-09T01:33:05.163Z,12.00
2023-05-09T01:35:33.199Z,12.04
2023-05-09T01:37:59.830Z,12.06
2023-05-09T01:40:29.273Z,12.09
2023-05-09T01:43:01.613Z,11.83
2023-05-09T01:45:29.344Z,12.03
2023-05-09T01:47:56.766Z,11.93
2023-05-09T01:50:24.662Z,11.97
2023-05-09T01:52:53.392Z,11.91
2023-05-09T01:55:21.360Z,11.99
2023-05-09T01:57:48.970Z,11.98
2023-05-09T02:00:16.562Z,11.72
2023-05-09T02:02:44.418Z,11.75
2023-05-09T02:05:12.310Z,11.79
2023-05-09T02:07:41.258Z,11.94
2023-05-09T02:10:09.080Z,11.97
2023-05-09T02:12:38.329Z,11.71
2023-05-09T02:15:05.758Z,11.87
2023-05-09T02:17:34.842Z,11.71
2023-05-09T02:20:01.485Z,11.70
2023-05-09T02:22:28.307Z,11.98
2023-05-09T02:24:57.316Z,11.94
2023-05-09T02:27:24.077Z,12.00
2023-05-09T02:29:51.673Z,11.90
2023-05-09T02:32:23.180Z,11.95
2023-05-09T02:34:52.488Z,11.92
2023-05-09T02:37:21.880Z,11.85
2023-05-09T02:39:48.476Z,11.69
2023-05-09T02:42:22.545Z,11.83
2023-05-09T02:44:49.765Z,11.92
2023-05-09T02:47:16.270Z,11.87
2023-05-09T02:49:43.754Z,11.85
2023-05-09T02:52:14.598Z,11.84
2023-05-09T02:54:43.489Z,11.79
2023-05-09T02:57:10.029Z,11.85
2023-05-09T02:59:36.735Z,11.76
2023-05-09T03:02:05.590Z,11.89
2023-05-09T03:04:32.397Z,11.85
2023-05-09T03:06:59.537Z,11.69
2023-05-09T03:09:34.130Z,11.73
2023-05-09T03:12:00.819Z,11.91
2023-05-09T03:14:27.337Z,11.73
2023-05-09T03:16:54.662Z,11.57
2023-05-09T03:19:29.511Z,11.54
2023-05-09T03:21:58.446Z,11.68
2023-05-09T03:24:32.337Z,11.45
2023-05-09T03:26:58.960Z,11.61
2023-05-09T03:29:25.961Z,11.88
2023-05-09T03:31:53.936Z,11.70
2023-05-09T03:34:20.690Z,11.58
2023-05-09T03:36:47.294Z,11.62
2023-05-09T03:39:17.520Z,11.66
2023-05-09T03:41:47.057Z,11.60
2023-05-09T03:44:13.644Z,11.51
2023-05-09T03:46:40.372Z,11.76
2023-05-09T03:49:07.668Z,11.60
2023-05-09T03:51:42.811Z,11.75
2023-05-09T03:54:13.836Z,11.68
2023-05-09T03:56:43.680Z,11.76
2023-05-09T03:59:10.360Z,11.84
2023-05-09T04:01:40.601Z,11.63
2023-05-09T04:04:08.215Z,11.86
2023-05-09T04:06:36.336Z,11.63
2023-05-09T04:09:05.448Z,11.72
2023-05-09T04:11:32.481Z,11.41
2023-05-09T04:14:00.064Z,11.74
2023-05-09T04:16:31.047Z,11.93
2023-05-09T04:18:58.616Z,11.70
2023-05-09T04:21:26.560Z,12.04
2023-05-09T04:23:56.700Z,12.00
2023-05-09T04:26:31.544Z,11.98
2023-05-09T04:29:01.469Z,12.18
2023-05-09T04:31:29.056Z,12.11
2023-05-09T04:33:56.064Z,12.21
2023-05-09T04:36:23.123Z,11.99
2023-05-09T04:38:49.790Z,11.57
2023-05-09T04:41:21.571Z,11.77
2023-05-09T04:43:48.506Z,11.80
2023-05-09T04:46:15.387Z,11.96
2023-05-09T04:48:42.308Z,11.91
2023-05-09T04:51:09.036Z,11.99
2023-05-09T04:53:35.628Z,12.14
2023-05-09T04:56:03.201Z,12.22
2023-05-09T04:58:31.195Z,12.24
2023-05-09T05:00:58.256Z,12.18
2023-05-09T05:03:24.975Z,12.14
2023-05-09T05:05:51.605Z,11.99
2023-05-09T05:08:18.282Z,12.39
2023-05-09T05:10:45.540Z,12.47
2023-05-09T05:13:15.682Z,12.72
2023-05-09T05:15:45.765Z,12.68
2023-05-09T05:18:13.473Z,12.65
2023-05-09T05:20:40.548Z,13.01
2023-05-09T05:23:07.314Z,13.05
2023-05-09T05:25:34.161Z,12.72
2023-05-09T05:28:01.723Z,12.90
2023-05-09T05:30:28.437Z,12.91
2023-05-09T05:32:56.235Z,12.69
2023-05-09T05:35:24.743Z,12.92
2023-05-09T05:37:52.625Z,13.03
2023-05-09T05:40:19.368Z,13.09
2023-05-09T05:42:48.262Z,13.22
2023-05-09T05:45:15.083Z,13.40
2023-05-09T05:47:46.356Z,13.34
2023-05-09T05:50:13.681Z,13.22
2023-05-09T05:52:41.554Z,13.53
2023-05-09T05:55:11.911Z,13.76
2023-05-09T05:57:39.518Z,13.58
2023-05-09T06:00:11.842Z,13.97
2023-05-09T06:02:45.881Z,14.04
2023-05-09T06:05:19.981Z,13.85
2023-05-09T06:07:47.044Z,14.11
2023-05-09T06:10:15.933Z,14.08
2023-05-09T06:12:44.722Z,14.04
2023-05-09T06:15:11.966Z,14.49
2023-05-09T06:17:42.008Z,14.56
2023-05-09T06:20:08.740Z,14.69
2023-05-09T06:22:35.669Z,14.88
2023-05-09T06:25:02.782Z,14.61
2023-05-09T06:27:29.358Z,14.71
2023-05-09T06:29:56.069Z,14.97
2023-05-09T06:32:22.686Z,14.83
2023-05-09T06:34:49.364Z,14.85
2023-05-09T06:37:18.956Z,14.78
2023-05-09T06:39:45.550Z,15.00
2023-05-09T06:42:12.123Z,15.20
2023-05-09T06:44:39.463Z,15.26
2023-05-09T06:47:06.156Z,15.23
2023-05-09T06:49:38.754Z,15.42
2023-05-09T06:52:08.128Z,15.31
2023-05-09T06:54:34.713Z,15.52
2023-05-09T06:57:01.350Z,15.73
2023-05-09T06:59:27.954Z,15.78
2023-05-09T07:01:54.638Z,15.78
2023-05-09T07:04:21.295Z,15.81
2023-05-09T07:06:50.234Z,16.15
2023-05-09T07:09:18.986Z,16.20
2023-05-09T07:11:46.000Z,16.28
2023-05-09T07:14:12.671Z,16.32
2023-05-09T07:16:39.227Z,16.29
2023-05-09T07:19:12.987Z,16.73
2023-05-09T07:21:39.654Z,16.45
2023-05-09T07:24:06.403Z,16.66
2023-05-09T07:26:33.023Z,16.82
2023-05-09T07:28:59.615Z,16.70
2023-05-09T07:31:26.262Z,16.79
2023-05-09T07:33:52.887Z,16.87
2023-05-09T07:36:19.491Z,16.97
2023-05-09T07:38:48.382Z,17.01
2023-05-09T07:41:15.476Z,17.32
2023-05-09T07:43:42.022Z,17.42
2023-05-09T07:46:08.658Z,17.53
2023-05-09T07:48:35.180Z,17.71
2023-05-09T07:51:03.712Z,17.70
2023-05-09T07:53:30.235Z,17.78
2023-05-09T07:55:58.427Z,17.65
2023-05-09T07:58:24.991Z,17.84
2023-05-09T08:00:51.574Z,17.75
2023-05-09T08:03:18.354Z,17.82
2023-05-09T08:05:45.121Z,17.58
2023-05-09T08:08:11.742Z,17.77
2023-05-09T08:10:38.325Z,17.62
2023-05-09T08:13:04.916Z,17.77
2023-05-09T08:15:31.666Z,17.76
2023-05-09T08:17:58.243Z,17.73
2023-05-09T08:20:24.934Z,17.91
2023-05-09T08:22:51.483Z,18.07
2023-05-09T08:25:18.378Z,18.24
2023-05-09T08:27:45.005Z,18.32
2023-05-09T08:30:12.331Z,18.35
2023-05-09T08:32:38.886Z,18.43
2023-05-09T08:35:06.200Z,18.39
2023-05-09T08:37:32.793Z,18.47
2023-05-09T08:39:59.431Z,18.66
2023-05-09T08:42:26.601Z,18.68
2023-05-09T08:44:53.640Z,18.62
2023-05-09T08:47:22.231Z,18.58
2023-05-09T08:49:50.177Z,18.72
2023-05-09T08:52:17.024Z,19.00
2023-05-09T08:54:44.074Z,19.15
2023-05-09T08:57:10.897Z,19.62
2023-05-09T08:59:38.236Z,19.50
2023-05-09T09:02:07.044Z,19.12
2023-05-09T09:04:33.755Z,19.32
2023-05-09T09:07:01.121Z,19.39
2023-05-09T09:09:28.167Z,19.43
2023-05-09T09:11:55.558Z,19.56
2023-05-09T09:14:25.555Z,19.55
2023-05-09T09:16:53.226Z,19.92
2023-05-09T09:19:20.453Z,19.88
2023-05-09T09:21:49.814Z,19.70
2023-05-09T09:24:21.058Z,19.72
2023-05-09T09:26:48.516Z,19.96
2023-05-09T09:29:15.822Z,19.96
2023-05-09T09:31:46.334Z,20.07
2023-05-09T09:34:17.331Z,20.08
2023-05-09T09:39:28.242Z,19.93
2023-05-09T09:41:54.806Z,20.06
2023-05-09T09:44:22.280Z,19.96
2023-05-09T09:47:10.507Z,20.56
2023-05-09T09:49:37.140Z,21.05
2023-05-09T09:52:04.205Z,21.28
2023-05-09T09:54:31.929Z,21.21
2023-05-09T09:57:01.956Z,20.78
2023-05-09T09:59:28.637Z,20.69
2023-05-09T10:02:07.931Z,20.83
2023-05-09T10:04:36.528Z,20.64
2023-05-09T10:07:07.402Z,20.66
2023-05-09T10:09:34.748Z,20.54
2023-05-09T10:12:02.885Z,21.12
2023-05-09T10:14:32.058Z,20.87
2023-05-09T10:17:01.600Z,20.99
2023-05-09T10:19:30.474Z,20.94
2023-05-09T10:21:58.232Z,21.03
2023-05-09T10:24:29.817Z,21.19
2023-05-09T10:26:59.747Z,21.06
2023-05-09T10:29:27.502Z,21.66
2023-05-09T10:31:55.750Z,21.79
2023-05-09T10:34:23.041Z,21.69
2023-05-09T10:36:49.762Z,21.56
2023-05-09T10:39:17.670Z,22.08
2023-05-09T10:41:49.969Z,22.82
2023-05-09T10:44:16.908Z,22.87
2023-05-09T10:46:44.872Z,23.46
2023-05-09T10:49:11.544Z,24.25
2023-05-09T10:51:42.263Z,23.91
2023-05-09T10:54:30.734Z,23.29
2023-05-09T10:56:58.008Z,23.25
2023-05-09T10:59:40.212Z,24.16
2023-05-09T11:02:12.534Z,24.12
2023-05-09T11:04:41.854Z,24.31
2023-05-09T11:07:25.637Z,24.67
2023-05-09T11:09:53.176Z,25.62
2023-05-09T11:12:21.322Z,26.66
2023-05-09T11:14:49.120Z,27.84
2023-05-09T11:17:22.117Z,29.43
2023-05-09T11:19:52.044Z,29.81
2023-05-09T11:22:22.644Z,30.14
2023-05-09T11:24:50.605Z,30.28
2023-05-09T11:27:17.219Z,30.30
2023-05-09T11:29:51.159Z,29.80
2023-05-09T11:32:18.312Z,30.48
2023-05-09T11:34:47.852Z,31.68
2023-05-09T11:37:16.985Z,30.80
2023-05-09T11:39:56.287Z,30.77
2023-05-09T11:42:31.360Z,31.20
2023-05-09T11:44:58.789Z,31.06
2023-05-09T11:47:28.959Z,30.37
2023-05-09T11:49:56.060Z,30.19
2023-05-09T11:52:22.687Z,30.25
2023-05-09T11:54:51.281Z,30.17
2023-05-09T11:57:20.893Z,29.94
2023-05-09T11:59:48.371Z,29.29
2023-05-09T12:02:15.044Z,28.46
2023-05-09T12:04:41.878Z,27.72
2023-05-09T12:07:11.265Z,27.30
2023-05-09T12:09:38.299Z,27.15
2023-05-09T12:12:20.854Z,26.74
2023-05-09T12:14:51.904Z,26.25
2023-05-09T12:17:18.531Z,26.22
2023-05-09T12:19:45.350Z,25.58
2023-05-09T12:22:12.008Z,25.16
2023-05-09T12:24:38.558Z,25.01
2023-05-09T12:27:05.308Z,25.19
2023-05-09T12:29:31.848Z,25.48
2023-05-09T12:31:59.218Z,26.15
2023-05-09T12:34:27.917Z,27.43
2023-05-09T12:36:54.495Z,26.87
2023-05-09T12:39:24.538Z,26.60
2023-05-09T12:42:01.510Z,26.92
2023-05-09T12:44:29.843Z,27.24
2023-05-09T12:46:58.091Z,28.01
2023-05-09T12:49:25.052Z,27.47
2023-05-09T12:51:52.680Z,27.53
2023-05-09T12:54:23.452Z,27.61
2023-05-09T12:56:56.636Z,27.41
2023-05-09T12:59:30.746Z,27.40
2023-05-09T13:02:01.912Z,27.26
2023-05-09T13:04:28.901Z,27.16
2023-05-09T13:06:57.394Z,27.55
2023-05-09T13:09:24.844Z,27.80
2023-05-09T13:11:52.279Z,27.17
2023-05-09T13:14:19.693Z,27.55
2023-05-09T13:16:46.530Z,28.52
2023-05-09T13:19:13.260Z,28.88
2023-05-09T13:21:39.960Z,28.72
2023-05-09T13:24:06.704Z,28.24
2023-05-09T13:26:34.017Z,28.25
2023-05-09T13:29:00.847Z,27.78
2023-05-09T13:31:27.534Z,28.18
2023-05-09T13:33:54.236Z,27.59
2023-05-09T13:36:21.092Z,27.95
2023-05-09T13:38:49.846Z,27.52
2023-05-09T13:41:23.999Z,28.23
2023-05-09T13:43:50.875Z,28.24
2023-05-09T13:46:17.616Z,27.40
2023-05-09T13:48:44.652Z,28.09
2023-05-09T13:51:18.525Z,27.96
2023-05-09T13:53:45.200Z,27.43
2023-05-09T13:56:12.001Z,27.70
2023-05-09T13:58:38.608Z,27.89
2023-05-09T14:01:05.253Z,27.42
2023-05-09T14:03:32.200Z,26.81
2023-05-09T14:05:58.830Z,26.76
2023-05-09T14:08:25.580Z,27.23
2023-05-09T14:10:52.116Z,27.35
2023-05-09T14:13:18.745Z,27.52
2023-05-09T14:15:47.472Z,27.32
2023-05-09T14:18:17.640Z,27.53
2023-05-09T14:20:46.106Z,27.67
2023-05-09T14:23:13.527Z,27.34
2023-05-09T14:25:40.131Z,26.68
2023-05-09T14:28:09.352Z,26.41
2023-05-09T14:30:37.076Z,26.11
2023-05-09T14:33:03.682Z,25.71
2023-05-09T14:35:32.864Z,25.92
2023-05-09T14:38:02.591Z,26.03
2023-05-09T14:40:32.240Z,26.43
2023-05-09T14:42:59.347Z,26.55
2023-05-09T14:45:33.612Z,25.87
2023-05-09T14:48:00.550Z,26.02
2023-05-09T14:50:27.153Z,26.16
2023-05-09T14:52:53.894Z,25.98
2023-05-09T14:55:21.391Z,25.99
2023-05-09T14:57:48.036Z,26.20
2023-05-09T15:00:21.259Z,25.80
2023-05-09T15:02:49.002Z,25.60
2023-05-09T15:05:18.772Z,25.71
2023-05-09T15:07:45.335Z,25.33
2023-05-09T15:10:11.964Z,25.69
2023-05-09T15:12:39.898Z,25.39
2023-05-09T15:15:14.137Z,24.96
2023-05-09T15:17:41.050Z,24.61
2023-05-09T15:20:07.749Z,25.01
2023-05-09T15:22:34.794Z,24.98
2023-05-09T15:25:02.428Z,25.05
2023-05-09T15:27:32.510Z,24.51
2023-05-09T15:29:59.079Z,24.61
2023-05-09T15:32:25.800Z,24.60
2023-05-09T15:34:52.398Z,24.46
2023-05-09T15:37:19.129Z,23.99
2023-05-09T15:39:46.326Z,24.20
2023-05-09T15:42:13.413Z,23.97
2023-05-09T15:44:40.836Z,23.83
2023-05-09T15:47:07.874Z,23.87
2023-05-09T15:49:34.573Z,23.78
2023-05-09T15:52:07.880Z,23.51
2023-05-09T15:54:35.056Z,23.45
2023-05-09T15:57:10.196Z,23.69
2023-05-09T15:59:36.862Z,23.44
2023-05-09T16:02:03.480Z,23.16
2023-05-09T16:04:30.231Z,23.47
2023-05-09T16:06:59.648Z,23.56
2023-05-09T16:09:26.238Z,23.67
2023-05-09T16:11:52.834Z,23.57
2023-05-09T16:14:19.596Z,23.74
2023-05-09T16:16:47.236Z,24.16
2023-05-09T16:19:16.611Z,24.12
2023-05-09T16:21:45.612Z,24.20
2023-05-09T16:24:12.186Z,24.27
2023-05-09T16:26:38.707Z,23.98
2023-05-09T16:29:05.373Z,24.29
2023-05-09T16:31:33.333Z,23.67
2023-05-09T16:34:02.066Z,23.85
2023-05-09T16:36:29.986Z,23.63
2023-05-09T16:38:56.607Z,23.43
2023-05-09T16:41:23.210Z,23.42
2023-05-09T16:43:49.823Z,23.28
2023-05-09T16:46:16.430Z,23.24
2023-05-09T16:48:43.020Z,23.06
2023-05-09T16:51:10.216Z,23.28
2023-05-09T16:53:36.837Z,23.04
2023-05-09T16:56:04.026Z,22.78
2023-05-09T16:58:30.732Z,22.82
2023-05-09T17:00:58.172Z,22.65
2023-05-09T17:03:24.773Z,23.21
2023-05-09T17:05:51.656Z,23.28
2023-05-09T17:08:18.301Z,23.20
2023-05-09T17:10:44.838Z,23.30
2023-05-09T17:13:14.137Z,23.16
2023-05-09T17:15:40.996Z,23.08
2023-05-09T17:18:07.718Z,23.23
2023-05-09T17:20:34.401Z,23.12
2023-05-09T17:23:01.111Z,22.85
2023-05-09T17:25:27.736Z,22.88
2023-05-09T17:27:56.700Z,22.68
2023-05-09T17:30:23.617Z,22.77
2023-05-09T17:32:50.562Z,22.67
2023-05-09T17:35:19.475Z,22.54
2023-05-09T17:37:46.378Z,22.59
2023-05-09T17:40:15.283Z,22.39
2023-05-09T17:42:42.350Z,22.21
2023-05-09T17:45:10.189Z,22.03
2023-05-09T17:47:37.598Z,22.12
2023-05-09T17:50:07.258Z,22.13
2023-05-09T17:52:34.097Z,22.01
2023-05-09T17:55:01.185Z,21.70
2023-05-09T17:57:28.279Z,21.38
2023-05-09T17:59:54.851Z,21.60
2023-05-09T18:02:23.968Z,21.67
2023-05-09T18:04:58.634Z,21.45
2023-05-09T18:07:26.168Z,21.04
2023-05-09T18:09:54.884Z,21.35
2023-05-09T18:12:21.601Z,21.38
2023-05-09T18:14:49.296Z,21.24
2023-05-09T18:17:16.088Z,21.15
2023-05-09T18:19:42.654Z,21.00
2023-05-09T18:22:09.252Z,20.73
2023-05-09T18:24:36.844Z,20.43
2023-05-09T18:27:04.256Z,20.40
2023-05-09T18:29:30.867Z,20.30
2023-05-09T18:31:57.752Z,20.22
2023-05-09T18:34:24.969Z,20.19
2023-05-09T18:36:52.568Z,20.16
2023-05-09T18:39:20.705Z,20.20
2023-05-09T18:41:47.352Z,20.08
2023-05-09T18:44:13.891Z,19.88
2023-05-09T18:46:41.386Z,19.97
2023-05-09T18:49:08.020Z,19.73
2023-05-09T18:51:37.884Z,19.74
2023-05-09T18:54:04.491Z,19.73
2023-05-09T18:56:39.033Z,19.60
2023-05-09T18:59:06.722Z,19.26
2023-05-09T19:01:35.696Z,19.35
2023-05-09T19:04:02.599Z,19.01
2023-05-09T19:06:32.474Z,19.16
2023-05-09T19:08:59.128Z,19.01
2023-05-09T19:11:25.944Z,19.26
2023-05-09T19:14:13.113Z,18.84
2023-05-09T19:16:39.722Z,18.93
2023-05-09T19:19:06.342Z,18.95
2023-05-09T19:21:36.656Z,18.90
2023-05-09T19:24:04.682Z,18.60
2023-05-09T19:26:31.216Z,18.60
2023-05-09T19:28:57.887Z,18.58
2023-05-09T19:31:25.578Z,18.63
2023-05-09T19:33:52.312Z,18.62
2023-05-09T19:36:19.096Z,18.56
2023-05-09T19:38:48.156Z,18.57
2023-05-09T19:41:14.978Z,18.58
2023-05-09T19:43:41.663Z,18.58
2023-05-09T19:46:10.858Z,18.53
2023-05-09T19:48:37.464Z,18.42
2023-05-09T19:51:04.261Z,18.27
2023-05-09T19:53:30.854Z,18.24
2023-05-09T19:55:57.872Z,18.39
2023-05-09T19:58:24.609Z,18.27
2023-05-09T20:00:59.129Z,18.18
2023-05-09T20:03:28.222Z,18.25
2023-05-09T20:05:54.886Z,18.37
2023-05-09T20:08:24.239Z,18.46
2023-05-09T20:10:50.949Z,18.49
2023-05-09T20:13:17.780Z,18.17
2023-05-09T20:15:44.733Z,18.24
2023-05-09T20:18:13.640Z,18.24
2023-05-09T20:20:40.364Z,18.08
2023-05-09T20:23:06.903Z,17.94
2023-05-09T20:25:35.595Z,17.76
2023-05-09T20:28:02.597Z,17.77
2023-05-09T20:30:29.213Z,17.75
2023-05-09T20:32:56.688Z,17.61
2023-05-09T20:35:23.374Z,17.61
2023-05-09T20:37:49.878Z,17.65
2023-05-09T20:40:16.743Z,17.59
2023-05-09T20:42:43.445Z,17.57
2023-05-09T20:45:10.322Z,17.30
2023-05-09T20:47:39.950Z,17.53
2023-05-09T20:50:07.146Z,17.63
2023-05-09T20:52:33.730Z,17.41
2023-05-09T20:55:02.724Z,17.52
2023-05-09T20:57:29.303Z,17.57
2023-05-09T20:59:55.910Z,17.35
2023-05-09T21:02:22.639Z,17.57
2023-05-09T21:04:51.988Z,17.37
2023-05-09T21:07:19.917Z,17.48
2023-05-09T21:09:46.768Z,17.52
2023-05-09T21:12:16.711Z,17.42
2023-05-09T21:14:44.710Z,17.21
2023-05-09T21:17:11.401Z,17.35
2023-05-09T21:19:38.081Z,17.37
2023-05-09T21:22:05.811Z,17.27
2023-05-09T21:24:32.484Z,17.32
2023-05-09T21:26:59.527Z,17.24
2023-05-09T21:29:26.235Z,17.31
2023-05-09T21:31:53.142Z,17.24
2023-05-09T21:34:22.480Z,17.27
2023-05-09T21:36:49.006Z,17.27
2023-05-09T21:39:15.644Z,17.26
2023-05-09T21:41:44.901Z,17.03
2023-05-09T21:44:12.173Z,17.13
2023-05-09T21:46:38.981Z,17.04
2023-05-09T21:49:05.882Z,16.98
2023-05-09T21:51:33.529Z,17.23
2023-05-09T21:54:01.195Z,17.14
2023-05-09T21:56:27.738Z,17.20
2023-05-09T21:58:54.311Z,17.02
2023-05-09T22:01:21.325Z,17.19
2023-05-09T22:03:48.124Z,17.07
2023-05-09T22:06:14.687Z,16.97
2023-05-09T22:08:41.452Z,17.17
2023-05-09T22:11:07.992Z,17.22
2023-05-09T22:13:36.076Z,17.02
2023-05-09T22:16:03.851Z,17.09
2023-05-09T22:18:33.795Z,17.23
2023-05-09T22:21:03.203Z,17.24
2023-05-09T22:23:29.794Z,17.17
2023-05-09T22:25:56.315Z,17.16
2023-05-09T22:28:22.963Z,16.91
2023-05-09T22:30:49.586Z,16.79
2023-05-09T22:33:16.284Z,16.91
2023-05-09T22:35:45.168Z,16.94
2023-05-09T22:38:11.870Z,16.61
2023-05-09T22:40:38.473Z,16.94
2023-05-09T22:43:05.627Z,16.85
2023-05-09T22:45:34.644Z,16.77
2023-05-09T22:48:04.376Z,16.68
2023-05-09T22:50:31.059Z,16.66
2023-05-09T22:52:57.664Z,16.71
2023-05-09T22:55:24.469Z,16.65
2023-05-09T22:57:50.992Z,16.29
2023-05-09T23:00:18.424Z,16.36
2023-05-09T23:02:45.516Z,16.57
2023-05-09T23:05:14.952Z,16.49
2023-05-09T23:07:44.026Z,16.33
2023-05-09T23:10:13.100Z,16.03
2023-05-09T23:12:39.738Z,16.03
2023-05-09T23:15:07.484Z,16.27
2023-05-09T23:17:34.071Z,16.21
2023-05-09T23:20:01.598Z,16.14
2023-05-09T23:22:28.303Z,16.39
2023-05-09T23:24:54.870Z,16.07
2023-05-09T23:27:21.651Z,16.22
2023-05-09T23:29:48.822Z,16.15
2023-05-09T23:32:15.354Z,16.10
2023-05-09T23:34:41.997Z,15.97
2023-05-09T23:37:10.654Z,16.12
2023-05-09T23:39:37.254Z,15.96
2023-05-09T23:42:11.522Z,16.01
2023-05-09T23:44:38.153Z,16.02
2023-05-09T23:47:04.690Z,15.99
2023-05-09T23:49:31.258Z,15.88
2023-05-09T23:51:57.906Z,15.58
2023-05-09T23:54:26.868Z,15.56
2023-05-09T23:56:55.785Z,15.12
2023-05-09T23:59:22.446Z,15.30
